LFMD/CEQ METAR and TAF weather

Enter ICAO airport designator
Station Type Date Time Source
LFMD METAR 2023/02/06 20:00 UTC NOAA

LFMD 062000Z AUTO VRB03KT 9999 OVC044 10/01 Q1028


Station Type Date Time Source
LFMD Decoded METAR 2023/02/06 20:00 UTC NOAA

Cannes, France (LFMD) 43-33N 006-57E 9M
Feb 06, 2023 - 03:00 PM EST / 2023.02.06 2000 UTC
Wind: Variable at 3 MPH (3 KT):0
Visibility: greater than 7 mile(s):0
Sky conditions: overcast
Temperature: 50 F (10 C)
Dew Point: 33 F (1 C)
Relative Humidity: 53%
Pressure (altimeter): 30.36 in. Hg (1028 hPa)
ob: LFMD 062000Z AUTO VRB03KT 9999 OVC044 10/01 Q1028
cycle: 20

Station Type Date Time Source
LFMD TAF 2023/02/06 19:36 UTC NOAA

TAF LFMD 061900Z 0619/0715 CNL

Example: see airport list